Time;durP1;ratioP1;P1;durP2;ratioP2;P2;SDS_P1;SDS_P2;PMS_P1;PMS_P2;Temp;Humidity;BMP_temperature;BMP_pressure;BME280_temperature;BME280_humidity;BME280_pressure;Samples;Min_cycle;Max_cycle;Signal;HPM_P1;HPM_P2
2022/12/03 00:00:33;;;;;;;27.67;17.52;;;;;;;1.29;86.89;102289.25;5023595;28;20467;-52
2022/12/03 00:02:59;;;;;;;26.02;17.33;;;;;;;1.25;87.62;102283.22;5031948;28;20072;-50
2022/12/03 00:05:24;;;;;;;26.95;17.90;;;;;;;1.26;87.40;102290.16;5032110;28;20492;-52
2022/12/03 00:07:49;;;;;;;28.17;17.33;;;;;;;1.24;86.95;102284.09;5031833;28;20025;-49
2022/12/03 00:10:15;;;;;;;28.67;17.27;;;;;;;1.24;87.41;102281.47;5032345;28;20025;-50
2022/12/03 00:12:40;;;;;;;28.77;17.67;;;;;;;1.24;87.57;102281.47;5032958;28;20391;-50
2022/12/03 00:15:06;;;;;;;26.83;17.38;;;;;;;1.24;87.11;102278.84;5034904;28;20044;-49
2022/12/03 00:17:32;;;;;;;30.27;17.15;;;;;;;1.23;87.97;102276.25;5036237;28;20503;-50
2022/12/03 00:19:57;;;;;;;27.25;17.50;;;;;;;1.24;87.77;102278.84;5032036;28;20095;-50
2022/12/03 00:22:22;;;;;;;28.10;18.45;;;;;;;1.25;87.76;102277.09;5032056;28;20017;-51
2022/12/03 00:24:48;;;;;;;29.88;18.13;;;;;;;1.25;87.66;102277.97;5031714;28;20028;-49
2022/12/03 00:27:13;;;;;;;29.02;19.20;;;;;;;1.26;87.93;102269.22;5031572;28;20087;-50
2022/12/03 00:29:38;;;;;;;29.40;18.25;;;;;;;1.26;88.09;102263.13;5031668;28;20438;-49
2022/12/03 00:32:04;;;;;;;27.70;17.15;;;;;;;1.27;87.62;102257.88;5032366;28;20045;-53
2022/12/03 00:34:29;;;;;;;26.10;17.25;;;;;;;1.28;87.57;102266.56;5031237;28;20045;-51
2022/12/03 00:36:54;;;;;;;29.73;18.58;;;;;;;1.27;88.02;102260.50;5032111;28;20036;-52
2022/12/03 00:39:19;;;;;;;28.60;17.58;;;;;;;1.27;88.47;102260.50;5031585;28;20451;-52
2022/12/03 00:41:45;;;;;;;29.73;19.05;;;;;;;1.28;88.02;102258.72;5031232;28;20025;-52
2022/12/03 00:44:10;;;;;;;26.95;18.35;;;;;;;1.30;87.94;102259.59;5031497;28;20033;-53
2022/12/03 00:46:36;;;;;;;31.42;18.33;;;;;;;1.31;88.02;102261.31;5032842;28;20479;-50
2022/12/03 00:49:01;;;;;;;29.60;19.10;;;;;;;1.31;87.94;102257.81;5031971;28;20116;-51
2022/12/03 00:51:26;;;;;;;29.52;19.05;;;;;;;1.32;88.19;102256.94;5031583;28;20376;-52
2022/12/03 00:53:52;;;;;;;30.33;19.55;;;;;;;1.31;88.17;102266.53;5029639;28;20033;-50
2022/12/03 00:56:17;;;;;;;29.90;19.00;;;;;;;1.31;88.13;102256.06;5032029;28;20504;-49
2022/12/03 00:58:42;;;;;;;31.88;19.38;;;;;;;1.33;88.49;102258.66;5031307;28;20037;-52
2022/12/03 01:01:07;;;;;;;30.50;19.27;;;;;;;1.33;87.83;102261.28;5031203;28;20040;-50
2022/12/03 01:03:33;;;;;;;29.90;18.27;;;;;;;1.34;87.66;102260.41;5031510;28;20039;-53
2022/12/03 01:05:58;;;;;;;29.98;18.77;;;;;;;1.33;88.23;102259.50;5031527;28;20029;-52
2022/12/03 01:08:23;;;;;;;28.63;18.73;;;;;;;1.32;88.00;102268.28;5030692;28;20113;-49
2022/12/03 01:10:48;;;;;;;28.40;18.55;;;;;;;1.32;87.83;102254.34;5033310;28;20025;-51
2022/12/03 01:13:14;;;;;;;31.40;19.27;;;;;;;1.33;87.88;102250.81;5036173;28;20060;-53
2022/12/03 01:15:39;;;;;;;31.08;19.55;;;;;;;1.31;87.77;102258.69;5034297;28;20049;-50
2022/12/03 01:18:04;;;;;;;27.33;18.80;;;;;;;1.32;88.09;102254.34;5035182;28;20098;-51
2022/12/03 01:20:30;;;;;;;31.80;20.23;;;;;;;1.31;87.80;102250.84;5035493;28;20133;-49
2022/12/03 01:22:55;;;;;;;30.92;19.75;;;;;;;1.32;87.97;102256.94;5034563;28;20029;-51
2022/12/03 01:25:20;;;;;;;31.63;20.05;;;;;;;1.33;88.16;102256.91;5035202;28;20433;-53
2022/12/03 01:27:46;;;;;;;32.08;20.02;;;;;;;1.33;88.02;102256.03;5033600;28;20061;-50
2022/12/03 01:30:12;;;;;;;33.22;20.08;;;;;;;1.33;88.21;102259.50;5035046;28;20049;-52
2022/12/03 01:32:37;;;;;;;30.80;19.92;;;;;;;1.33;87.91;102256.03;5034429;28;20541;-50
2022/12/03 01:35:03;;;;;;;31.05;19.15;;;;;;;1.34;88.08;102249.94;5034788;28;20083;-49
2022/12/03 01:37:28;;;;;;;30.90;20.08;;;;;;;1.33;88.34;102250.81;5034348;28;20048;-49
2022/12/03 01:39:54;;;;;;;30.25;21.00;;;;;;;1.34;88.50;102253.41;5034697;28;20033;-49
2022/12/03 01:42:28;;;;;;;30.63;20.02;;;;;;;1.35;88.02;102255.16;5034337;28;20057;-51
2022/12/03 01:44:57;;;;;;;32.20;20.73;;;;;;;1.33;88.21;102249.03;5035338;28;20108;-51
2022/12/03 01:47:35;;;;;;;33.92;21.58;;;;;;;1.36;88.20;102250.75;5034279;28;20029;-53
2022/12/03 01:50:03;;;;;;;34.47;21.17;;;;;;;1.34;88.14;102253.41;5034946;28;20558;-50
2022/12/03 01:52:33;;;;;;;33.55;21.83;;;;;;;1.34;88.02;102239.47;5034327;28;20022;-51
2022/12/03 01:55:00;;;;;;;31.88;21.73;;;;;;;1.34;88.36;102247.31;5034308;28;20080;-49
2022/12/03 01:57:38;;;;;;;34.85;22.23;;;;;;;1.33;88.21;102238.56;5033303;28;20025;-49
2022/12/03 02:00:04;;;;;;;34.05;20.92;;;;;;;1.33;88.43;102248.19;5034674;28;20053;-51
2022/12/03 02:02:31;;;;;;;33.33;20.73;;;;;;;1.33;88.36;102237.72;5033707;28;20080;-53
2022/12/03 02:04:56;;;;;;;31.33;21.38;;;;;;;1.35;88.66;102238.56;5034264;28;20021;-51
2022/12/03 02:07:28;;;;;;;30.92;21.10;;;;;;;1.35;88.30;102247.28;5033984;28;20549;-50
2022/12/03 02:09:56;;;;;;;33.25;20.48;;;;;;;1.36;88.55;102240.28;5034467;28;20091;-50
2022/12/03 02:12:27;;;;;;;36.70;21.83;;;;;;;1.35;88.40;102239.44;5034380;28;20604;-51
2022/12/03 02:14:53;;;;;;;34.35;21.27;;;;;;;1.35;88.37;102244.69;5033533;28;20025;-50
2022/12/03 02:17:18;;;;;;;35.10;22.00;;;;;;;1.35;88.51;102249.03;5034206;28;20486;-50
2022/12/03 02:19:44;;;;;;;32.45;21.33;;;;;;;1.36;88.85;102243.78;5034224;28;20025;-53
2022/12/03 02:22:22;;;;;;;34.70;21.75;;;;;;;1.36;88.40;102241.16;5039691;28;20030;-51
2022/12/03 02:25:04;;;;;;;34.97;22.35;;;;;;;1.36;88.34;102238.53;5030536;28;20053;-52
2022/12/03 02:27:30;;;;;;;35.35;21.63;;;;;;;1.36;88.07;102235.06;5026651;28;20053;-50
2022/12/03 02:29:55;;;;;;;36.97;22.65;;;;;;;1.36;88.61;102237.69;5034011;28;20471;-52
2022/12/03 02:32:22;;;;;;;36.20;22.80;;;;;;;1.35;88.87;102235.94;5033673;28;20041;-49
2022/12/03 02:34:48;;;;;;;32.58;21.83;;;;;;;1.35;88.86;102236.81;5033859;28;20450;-50
2022/12/03 02:37:19;;;;;;;35.15;21.77;;;;;;;1.37;88.62;102231.56;5036900;28;20034;-52
2022/12/03 02:39:49;;;;;;;35.70;22.75;;;;;;;1.35;88.77;102231.59;5033600;28;20034;-49
2022/12/03 02:42:33;;;;;;;35.83;21.98;;;;;;;1.37;88.83;102226.34;5035177;28;20368;-49
2022/12/03 02:45:02;;;;;;;31.88;21.10;;;;;;;1.36;89.05;102225.44;5033897;28;20033;-50
2022/12/03 02:47:29;;;;;;;35.90;22.42;;;;;;;1.36;88.76;102227.22;5033511;28;20034;-50
2022/12/03 02:49:55;;;;;;;35.97;22.40;;;;;;;1.36;88.83;102228.06;5033257;28;20052;-50
2022/12/03 02:52:20;;;;;;;34.53;21.55;;;;;;;1.37;88.72;102228.94;5032650;28;20029;-50
2022/12/03 02:54:47;;;;;;;35.00;21.83;;;;;;;1.34;88.63;102223.75;5033794;28;20382;-49
2022/12/03 02:57:12;;;;;;;35.25;23.00;;;;;;;1.33;88.63;102222.00;5033172;28;20065;-52
2022/12/03 02:59:38;;;;;;;35.22;22.02;;;;;;;1.33;88.78;102224.63;5033781;28;20501;-51
2022/12/03 03:02:03;;;;;;;35.25;22.40;;;;;;;1.33;88.96;102219.41;5032622;28;20494;-51
2022/12/03 03:04:29;;;;;;;35.08;21.10;;;;;;;1.34;88.80;102218.53;5041346;28;20441;-50
2022/12/03 03:06:54;;;;;;;34.15;22.48;;;;;;;1.35;88.88;102222.84;5037101;28;20047;-53
2022/12/03 03:09:20;;;;;;;36.22;21.85;;;;;;;1.35;89.15;102221.13;5030894;28;20033;-51
2022/12/03 03:11:45;;;;;;;33.60;22.02;;;;;;;1.35;88.97;102217.63;5028836;28;20025;-50
2022/12/03 03:14:11;;;;;;;37.72;23.15;;;;;;;1.35;89.01;102215.88;5032795;28;20017;-50
2022/12/03 03:16:36;;;;;;;37.25;23.17;;;;;;;1.36;89.56;102214.97;5032095;28;20487;-50
2022/12/03 03:19:02;;;;;;;33.65;21.63;;;;;;;1.37;89.31;102215.84;5033257;28;20025;-50
2022/12/03 03:21:27;;;;;;;35.53;23.25;;;;;;;1.35;89.15;102210.66;5032372;28;20079;-51
2022/12/03 03:23:52;;;;;;;34.15;22.60;;;;;;;1.36;89.07;102211.50;5032168;28;20034;-50
2022/12/03 03:26:18;;;;;;;35.58;21.63;;;;;;;1.36;89.41;102216.75;5032068;28;20041;-51
2022/12/03 03:28:47;;;;;;;37.40;23.08;;;;;;;1.35;89.43;102208.03;5033255;28;20029;-52
2022/12/03 03:31:16;;;;;;;32.13;21.75;;;;;;;1.35;89.05;102199.28;5033081;28;20041;-52
2022/12/03 03:33:46;;;;;;;33.72;21.98;;;;;;;1.34;89.43;102201.06;5024629;28;20479;-53
2022/12/03 03:36:13;;;;;;;34.35;22.13;;;;;;;1.34;89.38;102208.06;5032701;28;20037;-50
2022/12/03 03:38:39;;;;;;;37.53;24.13;;;;;;;1.35;89.50;102201.91;5032350;28;20040;-52
2022/12/03 03:41:06;;;;;;;34.38;22.63;;;;;;;1.36;89.68;102201.03;5033062;28;20041;-50
2022/12/03 03:43:33;;;;;;;34.45;22.27;;;;;;;1.35;89.87;102202.78;5032756;28;20036;-51
2022/12/03 03:46:00;;;;;;;34.30;21.55;;;;;;;1.36;89.52;102201.88;5032258;28;20048;-54
2022/12/03 03:48:26;;;;;;;34.92;22.27;;;;;;;1.38;90.02;102200.13;5032876;28;20029;-54
2022/12/03 03:50:52;;;;;;;34.83;21.90;;;;;;;1.38;89.82;102184.44;5032258;28;20044;-50
2022/12/03 03:53:19;;;;;;;33.92;22.05;;;;;;;1.38;89.32;102196.63;5036425;28;20061;-51
2022/12/03 03:55:45;;;;;;;33.90;23.05;;;;;;;1.36;89.42;102196.66;5031840;28;20037;-51
2022/12/03 03:58:10;;;;;;;33.15;21.00;;;;;;;1.36;89.71;102190.56;5029805;28;20018;-50
2022/12/03 04:00:36;;;;;;;35.50;23.58;;;;;;;1.34;89.51;102193.19;5032435;28;20029;-52
2022/12/03 04:03:03;;;;;;;33.80;22.23;;;;;;;1.34;89.55;102195.81;5032150;28;20471;-50
2022/12/03 04:05:28;;;;;;;36.38;22.77;;;;;;;1.34;89.42;102193.19;5032283;28;20387;-50
2022/12/03 04:07:54;;;;;;;42.03;24.17;;;;;;;1.33;89.03;102190.59;5031285;28;20082;-51
2022/12/03 04:13:04;;;;;;;36.30;24.08;;;;;;;1.34;89.75;102190.59;5041141;28;20132;-50
2022/12/03 04:15:29;;;;;;;35.53;23.35;;;;;;;1.35;89.61;102186.19;5031543;28;20029;-52
2022/12/03 04:20:39;;;;;;;34.95;23.00;;;;;;;1.35;89.60;102181.84;5024290;28;20099;-51
2022/12/03 04:23:05;;;;;;;37.33;23.92;;;;;;;1.35;89.36;102188.81;5032657;28;20392;-51
2022/12/03 04:30:58;;;;;;;39.38;23.60;;;;;;;1.33;89.52;102183.59;5032560;28;20527;-51
2022/12/03 04:36:07;;;;;;;36.97;24.00;;;;;;;1.33;89.58;102185.38;5032409;28;20495;-52
2022/12/03 04:38:32;;;;;;;39.22;24.00;;;;;;;1.36;89.69;102186.19;5031816;28;20025;-52
2022/12/03 04:41:02;;;;;;;37.17;23.65;;;;;;;1.37;89.69;102187.06;5031861;28;20059;-51
2022/12/03 04:43:32;;;;;;;35.58;23.02;;;;;;;1.35;90.11;102188.81;5031966;28;20487;-51
2022/12/03 04:45:58;;;;;;;39.08;24.10;;;;;;;1.34;89.35;102181.88;5031430;28;20115;-52
2022/12/03 04:48:23;;;;;;;38.72;24.88;;;;;;;1.32;89.60;102174.03;5029412;28;20033;-51
2022/12/03 04:50:49;;;;;;;38.47;24.27;;;;;;;1.31;90.05;102180.16;5037070;28;20028;-50
2022/12/03 04:53:14;;;;;;;36.15;24.05;;;;;;;1.31;89.79;102180.16;5035624;28;20032;-51
2022/12/03 04:55:39;;;;;;;40.00;25.63;;;;;;;1.28;89.76;102177.59;5035879;28;20352;-50
2022/12/03 04:58:05;;;;;;;38.33;24.35;;;;;;;1.28;89.82;102177.59;5035742;28;20037;-51
2022/12/03 05:00:30;;;;;;;38.05;23.77;;;;;;;1.31;89.94;102176.69;5036192;28;20088;-51
2022/12/03 05:02:55;;;;;;;38.15;24.17;;;;;;;1.31;90.48;102174.06;5036101;28;20092;-53
2022/12/03 05:05:21;;;;;;;39.30;23.77;;;;;;;1.31;90.09;102174.06;5035733;28;20037;-51
2022/12/03 05:07:46;;;;;;;37.75;23.70;;;;;;;1.33;89.81;102167.03;5035400;28;20479;-52
2022/12/03 05:10:12;;;;;;;35.67;23.02;;;;;;;1.31;90.30;102166.22;5035294;28;20044;-50
2022/12/03 05:12:37;;;;;;;37.47;23.55;;;;;;;1.32;90.48;102170.56;5035422;28;20033;-51
2022/12/03 05:15:04;;;;;;;34.22;23.10;;;;;;;1.33;90.25;102167.03;5035526;28;20033;-50
2022/12/03 05:17:29;;;;;;;35.88;23.58;;;;;;;1.32;90.09;102166.19;5035201;28;20025;-53
2022/12/03 05:22:38;;;;;;;37.63;23.38;;;;;;;1.34;90.68;102163.56;5035721;28;20040;-52
2022/12/03 05:25:04;;;;;;;36.83;23.20;;;;;;;1.33;90.11;102167.91;5027987;28;20406;-52
2022/12/03 05:27:29;;;;;;;36.53;24.50;;;;;;;1.33;90.19;102167.91;5035011;28;20132;-52
2022/12/03 05:29:55;;;;;;;40.30;25.50;;;;;;;1.33;90.01;102167.03;5034682;28;20025;-51
2022/12/03 05:32:20;;;;;;;39.38;25.17;;;;;;;1.33;90.55;102173.13;5035477;28;20399;-51
2022/12/03 05:34:45;;;;;;;39.53;25.23;;;;;;;1.28;89.99;102159.25;5034290;28;20071;-52
2022/12/03 05:37:11;;;;;;;41.75;25.83;;;;;;;1.29;90.06;102163.63;5035204;28;20025;-54
2022/12/03 05:39:36;;;;;;;39.67;24.75;;;;;;;1.27;90.56;102160.16;5034724;28;20033;-52
2022/12/03 05:44:46;;;;;;;39.22;25.38;;;;;;;1.31;90.41;102155.75;5032677;28;20462;-50
2022/12/03 05:47:11;;;;;;;38.13;23.80;;;;;;;1.32;90.50;102154.88;5033521;28;20057;-51
2022/12/03 05:49:36;;;;;;;37.95;24.75;;;;;;;1.32;90.39;102149.63;5035010;28;20032;-49
2022/12/03 05:52:02;;;;;;;38.03;24.10;;;;;;;1.31;90.28;102151.38;5034496;28;20086;-51
2022/12/03 05:54:27;;;;;;;43.03;26.42;;;;;;;1.32;90.43;102152.25;5034920;28;20503;-51
2022/12/03 05:56:52;;;;;;;40.03;24.98;;;;;;;1.29;90.83;102147.91;5034617;28;20113;-52
2022/12/03 05:59:17;;;;;;;41.35;25.52;;;;;;;1.30;91.13;102147.03;5034732;28;20472;-52
2022/12/03 06:01:43;;;;;;;37.88;24.63;;;;;;;1.30;90.85;102149.66;5034025;28;20029;-55
2022/12/03 06:04:08;;;;;;;37.83;24.58;;;;;;;1.29;90.83;102146.16;5034323;28;20434;-52
2022/12/03 06:06:33;;;;;;;36.97;23.60;;;;;;;1.32;91.09;102145.25;5034713;28;20488;-50
2022/12/03 06:08:59;;;;;;;37.70;24.25;;;;;;;1.32;91.21;102145.25;5034078;28;20022;-53
2022/12/03 06:11:24;;;;;;;39.70;24.52;;;;;;;1.32;90.74;102147.00;5034490;28;20060;-53
2022/12/03 06:13:49;;;;;;;39.78;25.67;;;;;;;1.32;90.87;102147.88;5034020;28;20032;-52
2022/12/03 06:16:15;;;;;;;40.60;25.33;;;;;;;1.31;90.95;102146.13;5034196;28;20032;-51
2022/12/03 06:18:40;;;;;;;42.00;26.13;;;;;;;1.31;91.05;102143.50;5033418;28;20029;-50
2022/12/03 06:21:05;;;;;;;41.55;26.25;;;;;;;1.31;90.98;102142.66;5034318;28;20061;-49
2022/12/03 06:23:30;;;;;;;39.90;24.88;;;;;;;1.32;90.99;102139.16;5043412;28;20036;-50
2022/12/03 06:25:56;;;;;;;41.75;26.13;;;;;;;1.30;91.08;102139.19;5034353;28;20021;-51
2022/12/03 06:28:21;;;;;;;40.75;26.02;;;;;;;1.29;90.92;102140.06;5028200;28;20025;-51
2022/12/03 06:30:46;;;;;;;41.25;26.05;;;;;;;1.27;91.44;102147.94;5042498;28;20056;-50
2022/12/03 06:33:11;;;;;;;42.72;26.48;;;;;;;1.27;91.46;102141.84;5033382;28;20029;-49
2022/12/03 06:35:37;;;;;;;40.47;24.90;;;;;;;1.27;91.66;102150.56;5033846;28;20029;-51
2022/12/03 06:38:02;;;;;;;39.75;23.73;;;;;;;1.27;91.13;102140.09;5034108;28;20528;-50
2022/12/03 06:40:27;;;;;;;40.97;25.20;;;;;;;1.26;91.25;102154.06;5034182;28;20029;-50
2022/12/03 06:42:53;;;;;;;41.50;25.90;;;;;;;1.27;91.39;102149.69;5038105;28;20029;-48
2022/12/03 06:45:18;;;;;;;39.42;24.35;;;;;;;1.26;91.54;102143.59;5042571;28;20115;-50
2022/12/03 06:47:43;;;;;;;39.53;24.83;;;;;;;1.25;91.18;102144.50;5033792;28;20045;-51
2022/12/03 06:50:09;;;;;;;40.85;26.27;;;;;;;1.26;91.46;102137.50;5033983;28;20152;-51
2022/12/03 06:52:35;;;;;;;39.63;25.60;;;;;;;1.26;91.66;102135.72;5022774;28;20405;-52
2022/12/03 06:55:00;;;;;;;40.67;25.45;;;;;;;1.25;91.25;102135.75;5035369;28;20033;-52
2022/12/03 06:57:25;;;;;;;37.65;23.92;;;;;;;1.26;91.44;102135.72;5040341;28;20108;-53
2022/12/03 06:59:51;;;;;;;40.97;25.83;;;;;;;1.26;91.84;102138.34;5043788;28;20025;-52
2022/12/03 07:02:16;;;;;;;38.55;24.38;;;;;;;1.26;91.25;102140.97;5036710;28;20108;-50
2022/12/03 07:04:41;;;;;;;44.28;25.73;;;;;;;1.26;91.54;102140.09;5036828;28;20032;-51
2022/12/03 07:07:06;;;;;;;40.15;24.25;;;;;;;1.25;91.54;102141.88;5027746;28;20482;-51
2022/12/03 07:09:32;;;;;;;42.17;25.88;;;;;;;1.23;91.34;102134.91;5047802;28;20064;-54
2022/12/03 07:11:57;;;;;;;38.25;23.85;;;;;;;1.23;91.24;102143.66;5035476;28;20044;-54
2022/12/03 07:14:23;;;;;;;41.58;25.65;;;;;;;1.22;91.59;102135.84;5033236;28;20470;-53
2022/12/03 07:16:48;;;;;;;42.38;23.85;;;;;;;1.22;91.32;102144.53;5034430;28;20464;-52
2022/12/03 07:19:13;;;;;;;42.47;24.65;;;;;;;1.23;91.09;102140.16;5028603;28;20395;-53
2022/12/03 07:21:39;;;;;;;35.42;23.00;;;;;;;1.23;90.99;102138.44;5033265;28;20045;-52
2022/12/03 07:24:05;;;;;;;43.15;25.23;;;;;;;1.23;91.09;102141.03;5037419;28;20029;-51
2022/12/03 07:26:30;;;;;;;40.13;23.88;;;;;;;1.22;90.82;102136.69;5026531;28;20120;-52
2022/12/03 07:28:56;;;;;;;40.63;24.30;;;;;;;1.23;90.75;102133.19;5031403;28;20025;-51
2022/12/03 07:31:21;;;;;;;37.95;23.00;;;;;;;1.23;90.66;102137.53;5024668;28;20403;-53
2022/12/03 07:33:47;;;;;;;39.65;23.70;;;;;;;1.22;91.21;102138.44;5030165;28;20025;-53
2022/12/03 07:36:12;;;;;;;38.10;24.17;;;;;;;1.24;90.74;102134.03;5027127;28;20087;-52
2022/12/03 07:38:38;;;;;;;42.53;24.55;;;;;;;1.20;90.94;102138.47;5029898;28;20029;-53
2022/12/03 07:41:03;;;;;;;42.63;24.08;;;;;;;1.20;90.63;102135.84;5030547;28;20454;-52
2022/12/03 07:43:28;;;;;;;42.70;24.80;;;;;;;1.20;91.24;102135.84;5029724;28;20039;-51
2022/12/03 07:45:54;;;;;;;40.35;24.15;;;;;;;1.19;90.73;102141.13;5029333;28;20076;-51
2022/12/03 07:48:19;;;;;;;37.50;23.85;;;;;;;1.19;90.87;102144.59;5030693;28;20497;-50
2022/12/03 07:50:44;;;;;;;39.03;24.40;;;;;;;1.20;91.17;102141.09;5029442;28;20062;-52
2022/12/03 07:53:10;;;;;;;43.05;24.75;;;;;;;1.22;90.97;102143.69;5030956;28;20087;-50
2022/12/03 07:55:35;;;;;;;45.83;25.30;;;;;;;1.20;91.29;102141.09;5029132;28;20461;-53
2022/12/03 07:58:00;;;;;;;39.45;23.95;;;;;;;1.21;90.68;102141.94;5028486;28;20035;-50
2022/12/03 08:00:26;;;;;;;42.08;24.70;;;;;;;1.22;90.98;102148.91;5029727;28;20649;-50
2022/12/03 08:02:51;;;;;;;39.72;24.30;;;;;;;1.21;90.60;102136.72;5029985;28;20117;-51
2022/12/03 08:05:16;;;;;;;39.08;23.90;;;;;;;1.21;90.85;102145.41;5028551;28;20371;-52
2022/12/03 08:07:41;;;;;;;38.25;24.05;;;;;;;1.22;91.23;102147.16;5026273;28;20039;-51
2022/12/03 08:10:07;;;;;;;37.25;23.73;;;;;;;1.22;91.15;102146.31;5027962;28;20033;-52
2022/12/03 08:12:39;;;;;;;40.15;22.88;;;;;;;1.23;90.69;102148.91;5028730;28;20030;-51
2022/12/03 08:15:11;;;;;;;44.47;24.70;;;;;;;1.24;90.74;102140.13;5025977;28;20046;-50
2022/12/03 08:17:39;;;;;;;42.50;24.05;;;;;;;1.24;90.35;102149.75;5030568;28;20075;-51
2022/12/03 08:20:20;;;;;;;41.90;23.30;;;;;;;1.24;90.30;102147.97;5029986;28;20380;-53
2022/12/03 08:22:48;;;;;;;38.22;21.83;;;;;;;1.25;90.25;102143.59;5028374;28;20079;-50
2022/12/03 08:25:21;;;;;;;37.25;23.02;;;;;;;1.28;90.57;102146.19;5028838;28;20038;-54
2022/12/03 08:27:46;;;;;;;38.47;23.10;;;;;;;1.29;90.34;102148.78;5028963;28;20045;-50
2022/12/03 08:30:16;;;;;;;37.97;22.02;;;;;;;1.29;89.72;102143.53;5029230;28;20033;-52
2022/12/03 08:32:42;;;;;;;38.33;23.77;;;;;;;1.28;89.47;102156.66;5026827;28;20401;-54
2022/12/03 08:35:25;;;;;;;37.80;22.33;;;;;;;1.31;90.06;102153.97;5030061;28;20117;-53
2022/12/03 08:37:57;;;;;;;38.85;21.17;;;;;;;1.31;89.10;102150.50;5030070;28;20039;-50
2022/12/03 08:40:33;;;;;;;37.42;22.10;;;;;;;1.31;89.69;102153.13;5028405;28;20045;-51
2022/12/03 08:42:59;;;;;;;38.72;21.65;;;;;;;1.33;89.12;102149.56;5029206;28;20175;-51
2022/12/03 08:45:38;;;;;;;37.38;21.02;;;;;;;1.34;89.31;102151.31;5026804;28;20068;-53
2022/12/03 08:48:24;;;;;;;42.13;21.55;;;;;;;1.34;89.12;102142.59;5027771;28;20030;-51
2022/12/03 08:50:50;;;;;;;37.33;21.48;;;;;;;1.33;89.41;102146.97;5026531;28;20045;-51
2022/12/03 08:53:33;;;;;;;40.08;21.67;;;;;;;1.35;89.53;102145.19;5032094;28;20025;-53
2022/12/03 08:56:02;;;;;;;39.03;22.70;;;;;;;1.33;89.53;102146.97;5027320;28;20052;-53
2022/12/03 08:58:35;;;;;;;42.87;23.60;;;;;;;1.35;89.85;102144.31;5029218;28;20037;-52
2022/12/03 09:01:09;;;;;;;41.72;23.60;;;;;;;1.36;89.71;102146.06;5029106;28;20025;-50
2022/12/03 09:03:43;;;;;;;43.00;24.85;;;;;;;1.35;89.69;102149.56;5031384;28;20462;-54
2022/12/03 09:06:08;;;;;;;40.65;22.52;;;;;;;1.35;89.18;102149.56;5032519;28;20037;-53
2022/12/03 09:08:33;;;;;;;39.85;22.42;;;;;;;1.35;89.79;102145.19;5027435;28;20055;-54
2022/12/03 09:11:00;;;;;;;38.08;22.15;;;;;;;1.35;89.50;102150.44;5032457;28;20037;-51
2022/12/03 09:13:25;;;;;;;38.65;22.35;;;;;;;1.37;89.99;102146.03;5029795;28;20025;-50
2022/12/03 09:15:50;;;;;;;40.33;23.42;;;;;;;1.40;90.00;102147.72;5030363;28;20022;-53
2022/12/03 09:18:16;;;;;;;42.33;22.30;;;;;;;1.41;89.91;102144.22;5033390;28;20028;-52
2022/12/03 09:20:41;;;;;;;39.90;21.90;;;;;;;1.40;89.52;102148.59;5030235;28;20018;-54
2022/12/03 09:23:06;;;;;;;41.00;23.70;;;;;;;1.37;89.56;102140.78;5030340;28;20038;-54
2022/12/03 09:25:32;;;;;;;42.60;23.73;;;;;;;1.38;89.14;102154.75;5030410;28;20028;-51
2022/12/03 09:27:57;;;;;;;40.83;23.98;;;;;;;1.37;88.71;102153.03;5030500;28;20049;-54
2022/12/03 09:30:22;;;;;;;43.70;24.75;;;;;;;1.38;88.36;102149.50;5025912;28;20048;-55
2022/12/03 09:32:48;;;;;;;40.80;22.52;;;;;;;1.38;88.24;102152.13;5030464;28;20040;-53
2022/12/03 09:35:13;;;;;;;41.92;22.90;;;;;;;1.36;87.58;102153.91;5029920;28;20021;-50
2022/12/03 09:37:38;;;;;;;40.65;22.83;;;;;;;1.34;88.09;102147.84;5030168;28;20076;-52
2022/12/03 09:40:06;;;;;;;44.05;23.38;;;;;;;1.31;88.00;102147.88;5033512;28;20025;-51
2022/12/03 09:42:32;;;;;;;44.33;24.73;;;;;;;1.32;87.75;102147.00;5034620;28;20123;-52
2022/12/03 09:44:57;;;;;;;41.17;23.65;;;;;;;1.32;87.60;102147.00;5034887;28;20061;-54
2022/12/03 09:47:24;;;;;;;41.33;22.55;;;;;;;1.33;88.03;102144.34;5029881;28;20087;-53
2022/12/03 09:49:50;;;;;;;41.55;23.90;;;;;;;1.31;87.60;102140.03;5032126;28;20033;-51
2022/12/03 09:52:25;;;;;;;38.92;22.02;;;;;;;1.31;87.12;102137.41;5033223;28;20068;-54
2022/12/03 09:54:50;;;;;;;40.50;23.40;;;;;;;1.29;87.38;102142.69;5032177;28;20025;-53
2022/12/03 09:57:17;;;;;;;42.25;23.33;;;;;;;1.29;87.60;102140.06;5035673;28;20468;-50
2022/12/03 09:59:42;;;;;;;40.97;21.52;;;;;;;1.29;87.01;102134.81;5032691;28;20032;-53
2022/12/03 10:02:34;;;;;;;40.78;22.23;;;;;;;1.30;87.20;102128.72;5033198;28;20022;-51
2022/12/03 10:04:59;;;;;;;39.28;20.95;;;;;;;1.28;86.77;102135.69;5030888;28;20045;-54
2022/12/03 10:07:25;;;;;;;36.63;20.90;;;;;;;1.26;86.59;102122.66;5030363;28;20387;-54
2022/12/03 10:09:50;;;;;;;38.45;21.13;;;;;;;1.26;86.86;102125.25;5034134;28;20029;-51
2022/12/03 10:12:21;;;;;;;38.22;21.13;;;;;;;1.27;86.00;102129.63;5039488;28;20091;-55
2022/12/03 10:14:47;;;;;;;39.83;20.90;;;;;;;1.27;86.16;102121.75;5025437;28;20037;-49
2022/12/03 10:17:12;;;;;;;47.42;21.92;;;;;;;1.27;86.25;102128.75;5034078;28;20383;-52
2022/12/03 10:19:38;;;;;;;32.97;19.17;;;;;;;1.26;85.47;102120.03;5033309;28;20424;-52
2022/12/03 10:22:03;;;;;;;32.38;19.33;;;;;;;1.25;85.32;102117.44;5033361;28;20030;-54
2022/12/03 10:24:29;;;;;;;38.25;21.35;;;;;;;1.25;85.41;102115.69;5033507;28;20044;-55
2022/12/03 10:27:00;;;;;;;33.20;18.40;;;;;;;1.25;84.71;102109.59;5032285;28;20045;-50
2022/12/03 10:29:29;;;;;;;33.78;20.25;;;;;;;1.23;85.00;102108.75;5037005;28;20030;-54
2022/12/03 10:32:05;;;;;;;32.53;18.42;;;;;;;1.21;84.96;102108.78;5026874;28;20061;-53
2022/12/03 10:34:39;;;;;;;31.17;18.02;;;;;;;1.21;85.08;102106.16;5022305;28;20112;-51
2022/12/03 10:37:09;;;;;;;29.98;17.70;;;;;;;1.23;84.77;102104.41;5035435;28;20101;-54
2022/12/03 10:40:04;;;;;;;31.08;19.17;;;;;;;1.20;84.96;102087.88;5031235;28;20113;-51
2022/12/03 10:42:34;;;;;;;32.72;17.83;;;;;;;1.17;84.97;102087.94;5029129;28;20132;-51
2022/12/03 10:45:21;;;;;;;32.13;18.13;;;;;;;1.17;85.46;102080.94;5033141;28;20048;-50
2022/12/03 10:48:11;;;;;;;32.67;17.98;;;;;;;1.18;84.92;102084.41;5032373;28;20041;-53
2022/12/03 10:50:44;;;;;;;31.25;17.45;;;;;;;1.15;84.75;102079.22;5033359;28;20510;-52
2022/12/03 10:53:10;;;;;;;32.45;18.73;;;;;;;1.15;84.39;102076.63;5033508;28;20112;-50
2022/12/03 10:55:41;;;;;;;33.00;18.58;;;;;;;1.14;85.15;102075.75;5033294;28;20034;-54
2022/12/03 10:58:18;;;;;;;31.35;18.77;;;;;;;1.17;84.74;102069.63;5033372;28;20061;-53
2022/12/03 11:00:43;;;;;;;33.80;19.15;;;;;;;1.15;84.98;102066.16;5033057;28;20037;-50
2022/12/03 11:03:20;;;;;;;33.30;19.05;;;;;;;1.19;85.38;102060.84;5033272;28;20037;-52
2022/12/03 11:05:47;;;;;;;33.15;18.88;;;;;;;1.18;84.80;102059.09;5031736;28;20032;-51
2022/12/03 11:08:21;;;;;;;33.15;19.92;;;;;;;1.20;84.52;102065.19;5034162;28;20021;-50
2022/12/03 11:11:12;;;;;;;32.20;18.27;;;;;;;1.23;84.82;102057.28;5038040;28;20029;-52
2022/12/03 11:13:37;;;;;;;33.30;18.42;;;;;;;1.25;84.45;102055.50;5029942;28;20468;-51
2022/12/03 11:16:05;;;;;;;28.10;18.33;;;;;;;1.29;84.62;102053.69;5041570;28;20025;-51
2022/12/03 11:18:33;;;;;;;28.67;18.27;;;;;;;1.31;83.94;102049.28;5028156;28;20037;-52
2022/12/03 11:21:00;;;;;;;32.42;18.85;;;;;;;1.32;83.43;102058.88;5037579;28;20363;-49
2022/12/03 11:23:44;;;;;;;29.90;17.42;;;;;;;1.36;84.65;102044.81;5033767;28;20100;-52
2022/12/03 11:26:32;;;;;;;32.60;18.42;;;;;;;1.40;84.02;102040.38;5032291;28;20053;-53
2022/12/03 11:28:58;;;;;;;27.95;17.77;;;;;;;1.37;83.52;102036.09;5020385;28;20053;-51
2022/12/03 11:31:35;;;;;;;32.92;19.38;;;;;;;1.40;83.09;102035.16;5032421;28;20017;-50
2022/12/03 11:34:18;;;;;;;31.60;20.48;;;;;;;1.40;83.25;102035.16;5021943;28;20064;-53
2022/12/03 11:37:08;;;;;;;31.58;19.10;;;;;;;1.38;83.16;102035.22;5030651;28;20034;-51